• Join FlightAware (Why Join?)
  • Login
  • US Flag 
09:22AM EDT


 

Airport Tracker/Info


-or-


 

Live Flight TrackerFlight Track Log ✈ DLH859 ✈ 2012年 04月 26日 ✈ ENGM / OSL - EDDF / FRA

Flight Track Log - Related Links

Times and Time Zones

All times are in EDT time to prevent confusion due to time zone crossing. See the DLH859 flight status page for this flight to view local times or setup timezone preferences in your user account.

Time Position Orientation Groundspeed Altitude Reporting Facility
EDT Latitude Longitude Course Direction KTS MPH feet Rate Location/Type
04:12AM 60.1705 11.0927 189° South  Level Estimated
04:13AM 60.0766 11.0621 189° South  Level Estimated
04:14AM 59.9828 11.0316 189° South  Level Estimated
04:15AM 59.8890 11.0014 189° South  Level Estimated
04:16AM 59.7952 10.9713 189° South  Level Estimated
04:17AM 59.7013 10.9413 189° South  Level Estimated
04:18AM 59.6075 10.9116 189° South  Level Estimated
04:19AM 59.5136 10.8820 189° South  Level Estimated
04:20AM 59.4197 10.8526 189° South  Level Estimated
04:21AM 59.3259 10.8233 189° South  Level Estimated
04:22AM 59.2320 10.7942 189° South  Level Estimated
04:23AM 59.1381 10.7653 189° South  Level Estimated
04:24AM 59.0442 10.7365 189° South  Level Estimated
04:25AM 58.9503 10.7078 189° South  Level Estimated
04:26AM 58.8564 10.6794 189° South  Level Estimated
04:27AM 58.7625 10.6510 189° South  Level Estimated
04:28AM 58.6686 10.6229 189° South  Level Estimated
04:29AM 58.5747 10.5949 189° South  Level Estimated
04:30AM 58.4808 10.5670 189° South  Level Estimated
04:31AM 58.3868 10.5393 189° South  Level Estimated
04:32AM 58.2929 10.5117 189° South  Level Estimated
04:33AM 58.1990 10.4843 189° South  Level Estimated
04:34AM 58.1050 10.4570 189° South  Level Estimated
04:35AM 58.0111 10.4299 189° South  Level Estimated
04:36AM 57.9171 10.4029 189° South  Level Estimated
04:37AM 57.8231 10.3760 189° South  Level Estimated
04:38AM 57.7292 10.3493 189° South  Level Estimated
04:39AM 57.6352 10.3227 189° South  Level Estimated
04:40AM 57.5412 10.2963 189° South  Level Estimated
04:41AM 57.4472 10.2700 189° South  Level Estimated
04:42AM 57.3532 10.2438 189° South  Level Estimated
04:43AM 57.2592 10.2178 188° South  Level Estimated
04:44AM 57.1652 10.1919 188° South  Level Estimated
04:45AM 57.0712 10.1661 188° South  Level Estimated
04:46AM 56.9772 10.1405 188° South  Level Estimated
04:47AM 56.8831 10.1150 188° South  Level Estimated
04:48AM 56.7891 10.0896 188° South  Level Estimated
04:49AM 56.6951 10.0643 188° South  Level Estimated
04:50AM 56.6011 10.0392 188° South  Level Estimated
04:51AM 56.5070 10.0142 188° South  Level Estimated
04:52AM 56.4130 9.9893 188° South  Level Estimated
04:53AM 56.3189 9.9646 188° South  Level Estimated
04:54AM 56.2248 9.9399 188° South  Level Estimated
04:55AM 56.1308 9.9154 188° South  Level Estimated
04:56AM 56.0367 9.8910 188° South  Level Estimated
04:57AM 55.9426 9.8667 188° South  Level Estimated
04:58AM 55.8486 9.8426 188° South  Level Estimated
04:59AM 55.7545 9.8185 188° South  Level Estimated
05:00AM 55.6604 9.7946 188° South  Level Estimated
05:01AM 55.5663 9.7708 188° South  Level Estimated
05:02AM 55.4722 9.7471 188° South  Level Estimated
05:03AM 55.3781 9.7235 188° South  Level Estimated
05:04AM 55.2840 9.7000 188° South  Level Estimated
05:05AM 55.1899 9.6767 188° South  Level Estimated
05:06AM 55.0958 9.6534 188° South  Level Estimated
05:07AM 55.0017 9.6303 188° South  Level Estimated
05:08AM 54.9076 9.6072 188° South  Level Estimated
05:09AM 54.8134 9.5843 188° South  Level Estimated
05:10AM 54.7193 9.5615 188° South  Level Estimated
05:11AM 54.6252 9.5388 188° South  Level Estimated
05:12AM 54.5310 9.5162 188° South  Level Estimated
05:13AM 54.4369 9.4937 188° South  Level Estimated
05:14AM 54.3427 9.4713 188° South  Level Estimated
05:15AM 54.2486 9.4490 188° South  Level Estimated
05:16AM 54.1544 9.4268 188° South  Level Estimated
05:17AM 54.0603 9.4047 188° South  Level Estimated
05:18AM 53.9661 9.3827 188° South  Level Estimated
05:19AM 53.8719 9.3608 188° South  Level Estimated
05:20AM 53.7778 9.3390 188° South  Level Estimated
05:21AM 53.6836 9.3173 188° South  Level Estimated
05:22AM 53.5894 9.2956 188° South  Level Estimated
05:23AM 53.4952 9.2741 188° South  Level Estimated
05:24AM 53.4011 9.2527 188° South  Level Estimated
05:25AM 53.3069 9.2314 188° South  Level Estimated
05:26AM 53.2127 9.2102 188° South  Level Estimated
05:27AM 53.1185 9.1890 188° South  Level Estimated
05:28AM 53.0243 9.1680 188° South  Level Estimated
05:29AM 52.9301 9.1471 188° South  Level Estimated
05:30AM 52.8358 9.1262 188° South  Level Estimated
05:31AM 52.7416 9.1054 188° South  Level Estimated
05:32AM 52.6474 9.0848 188° South  Level Estimated
05:33AM 52.5532 9.0642 188° South  Level Estimated
05:34AM 52.4590 9.0437 188° South  Level Estimated
05:35AM 52.3647 9.0232 188° South  Level Estimated
05:36AM 52.2705 9.0029 188° South  Level Estimated
05:37AM 52.1763 8.9827 187° South  Level Estimated
05:38AM 52.0821 8.9625 187° South  Level Estimated
05:39AM 51.9878 8.9425 187° South  Level Estimated
05:40AM 51.8936 8.9225 187° South  Level Estimated
05:41AM 51.7993 8.9026 187° South  Level Estimated
05:42AM 51.7051 8.8827 187° South  Level Estimated
05:43AM 51.6108 8.8630 187° South  Level Estimated
05:44AM 51.5165 8.8434 187° South  Level Estimated
05:45AM 51.4223 8.8238 187° South  Level Estimated
05:46AM 51.3280 8.8043 187° South  Level Estimated
05:47AM 51.2338 8.7849 187° South  Level Estimated
05:48AM 51.1395 8.7656 187° South  Level Estimated
05:49AM 51.0452 8.7463 187° South  Level Estimated
05:50AM 50.9509 8.7271 187° South  Level Estimated
05:51AM 50.8567 8.7080 187° South  Level Estimated
05:52AM 50.7624 8.6890 187° South  Level Estimated
05:53AM 50.6681 8.6700 187° South  Level Estimated
05:54AM 50.5738 8.6512 187° South  Level Estimated
05:55AM 50.4795 8.6324 187° South  Level Estimated
05:56AM 50.3852 8.6137 187° South  Level Estimated
05:57AM 50.2909 8.5950 187° South  Level Estimated
05:58AM 50.1966 8.5765 187° South  Level Estimated
05:59AM 50.1023 8.5580 187° South  Level Estimated
06:00AM 50.0080 8.5395 North  Level Estimated
06:01AM 50.1023 8.5580 187° South  Level Estimated
06:02AM 50.0080 8.5395 North  Level Estimated
06:03AM 50.1023 8.5580 187° South  Level Estimated
06:04AM 50.0080 8.5395 North  Level Estimated
06:05AM 50.1023 8.5580 187° South  Level Estimated
06:06AM 50.0080 8.5395 North  Level Estimated
06:07AM 50.1023 8.5580 187° South  Level Estimated
06:08AM 50.0080 8.5395 North  Level Estimated
06:09AM 50.1023 8.5580 187° South  Level Estimated
06:10AM 50.0080 8.5395 North  Level Estimated
06:11AM 50.1023 8.5580 187° South  Level Estimated
06:12AM 50.0080 8.5395 North  Level Estimated
06:13AM 50.1023 8.5580 North  Level Estimated